createdAt,value
2022-09-18T00:01:28.564Z,19.50
2022-09-18T00:04:05.257Z,19.48
2022-09-18T00:06:41.451Z,19.48
2022-09-18T00:09:16.686Z,19.48
2022-09-18T00:11:51.420Z,19.48
2022-09-18T00:14:25.566Z,19.44
2022-09-18T00:16:58.576Z,19.42
2022-09-18T00:19:31.483Z,19.38
2022-09-18T00:22:04.497Z,19.36
2022-09-18T00:24:37.976Z,19.33
2022-09-18T00:27:10.609Z,19.30
2022-09-18T00:29:44.919Z,19.30
2022-09-18T00:32:17.880Z,19.25
2022-09-18T00:34:50.625Z,19.22
2022-09-18T00:37:23.635Z,19.18
2022-09-18T00:39:56.538Z,19.15
2022-09-18T00:42:29.289Z,19.13
2022-09-18T00:45:03.738Z,19.12
2022-09-18T00:47:42.281Z,19.11
2022-09-18T00:50:19.442Z,19.07
2022-09-18T00:52:58.966Z,19.05
2022-09-18T00:55:39.421Z,19.03
2022-09-18T00:58:13.029Z,19.02
2022-09-18T01:00:46.152Z,19.03
2022-09-18T01:03:19.071Z,19.02
2022-09-18T01:06:05.491Z,19.01
2022-09-18T01:08:56.456Z,18.98
2022-09-18T01:12:08.006Z,18.98
2022-09-18T01:14:50.288Z,18.95
2022-09-18T01:17:39.777Z,18.94
2022-09-18T01:20:32.134Z,18.95
2022-09-18T01:23:24.487Z,18.96
2022-09-18T01:26:29.367Z,18.96
2022-09-18T01:29:32.497Z,18.96
2022-09-18T01:32:19.293Z,18.96
2022-09-18T01:35:14.031Z,18.94
2022-09-18T01:37:47.507Z,18.94
2022-09-18T01:40:43.193Z,18.95
2022-09-18T01:43:19.038Z,18.97
2022-09-18T01:45:56.143Z,18.98
2022-09-18T01:48:37.746Z,18.98
2022-09-18T01:51:19.819Z,18.97
2022-09-18T01:54:01.428Z,18.96
2022-09-18T01:56:41.074Z,18.95
2022-09-18T01:59:18.676Z,18.95
2022-09-18T02:01:58.839Z,18.96
2022-09-18T02:04:34.329Z,18.97
2022-09-18T02:07:17.917Z,18.97
2022-09-18T02:09:52.466Z,18.99
2022-09-18T02:12:28.243Z,18.97
2022-09-18T02:15:06.418Z,18.97
2022-09-18T02:17:58.076Z,18.97
2022-09-18T02:20:33.403Z,18.98
2022-09-18T02:23:09.089Z,18.99
2022-09-18T02:25:55.732Z,19.02
2022-09-18T02:28:30.373Z,19.04
2022-09-18T02:31:02.379Z,19.06
2022-09-18T02:33:38.983Z,19.06
2022-09-18T02:36:37.627Z,19.04
2022-09-18T02:39:49.140Z,19.04
2022-09-18T02:42:53.003Z,19.03
2022-09-18T02:45:56.408Z,19.04
2022-09-18T02:48:55.041Z,19.06
2022-09-18T02:51:55.123Z,19.07
2022-09-18T02:54:44.869Z,19.06
2022-09-18T02:57:43.213Z,19.06
2022-09-18T03:00:19.025Z,19.05
2022-09-18T03:02:53.483Z,19.03
2022-09-18T03:05:30.530Z,19.02
2022-09-18T03:08:05.546Z,19.00
2022-09-18T03:10:39.175Z,18.98
2022-09-18T03:13:13.131Z,18.96
2022-09-18T03:15:46.242Z,18.94
2022-09-18T03:18:21.331Z,18.93
2022-09-18T03:20:54.275Z,18.90
2022-09-18T03:23:27.383Z,18.89
2022-09-18T03:26:03.729Z,18.90
2022-09-18T03:28:38.153Z,18.90
2022-09-18T03:31:12.303Z,18.91
2022-09-18T03:33:45.115Z,18.91
2022-09-18T03:36:18.849Z,18.91
2022-09-18T03:38:52.002Z,18.91
2022-09-18T03:41:25.320Z,18.92
2022-09-18T03:43:58.617Z,18.94
2022-09-18T03:46:31.596Z,18.96
2022-09-18T03:49:06.425Z,18.98
2022-09-18T03:51:39.830Z,19.02
2022-09-18T03:54:14.843Z,19.06
2022-09-18T03:56:58.443Z,19.09
2022-09-18T03:59:35.744Z,19.16
2022-09-18T04:02:14.093Z,19.22
2022-09-18T04:04:53.687Z,19.26
2022-09-18T04:07:43.723Z,19.29
2022-09-18T04:10:34.855Z,19.31
2022-09-18T04:13:08.662Z,19.36
2022-09-18T04:15:42.257Z,19.38
2022-09-18T04:18:15.170Z,19.43
2022-09-18T04:20:48.412Z,19.45
2022-09-18T04:23:21.467Z,19.48
2022-09-18T04:25:54.523Z,19.51
2022-09-18T04:28:28.990Z,19.56
2022-09-18T04:31:02.911Z,19.59
2022-09-18T04:33:36.558Z,19.66
2022-09-18T04:36:11.228Z,19.72
2022-09-18T04:38:44.481Z,19.80
2022-09-18T04:41:17.350Z,19.86
2022-09-18T04:43:50.567Z,19.92
2022-09-18T04:46:24.247Z,19.98
2022-09-18T04:48:57.255Z,20.05
2022-09-18T04:51:32.353Z,20.12
2022-09-18T04:54:05.888Z,20.18
2022-09-18T04:56:41.455Z,20.24
2022-09-18T04:59:13.764Z,20.28
2022-09-18T05:01:48.311Z,20.31
2022-09-18T05:04:22.510Z,20.34
2022-09-18T05:07:04.726Z,20.39
2022-09-18T05:09:39.751Z,20.50
2022-09-18T05:12:13.844Z,20.64
2022-09-18T05:14:47.043Z,20.76
2022-09-18T05:17:20.359Z,20.92
2022-09-18T05:20:08.340Z,21.09
2022-09-18T05:22:47.457Z,21.26
2022-09-18T05:25:21.947Z,21.33
2022-09-18T05:28:00.419Z,21.36
2022-09-18T05:30:47.241Z,21.37
2022-09-18T05:33:20.119Z,21.42
2022-09-18T05:35:56.309Z,21.44
2022-09-18T05:38:29.364Z,21.44
2022-09-18T05:41:04.086Z,21.44
2022-09-18T05:43:37.224Z,21.47
2022-09-18T05:46:14.725Z,21.47
2022-09-18T05:48:51.510Z,21.48
2022-09-18T05:51:24.263Z,21.52
2022-09-18T05:53:57.293Z,21.56
2022-09-18T05:56:43.876Z,21.59
2022-09-18T05:59:17.174Z,21.63
2022-09-18T06:01:51.790Z,21.68
2022-09-18T06:04:27.412Z,21.73
2022-09-18T06:07:02.630Z,21.79
2022-09-18T06:09:35.692Z,21.82
2022-09-18T06:12:09.501Z,21.88
2022-09-18T06:14:42.637Z,21.89
2022-09-18T06:17:15.784Z,21.92
2022-09-18T06:19:50.713Z,21.93
2022-09-18T06:22:23.434Z,21.88
2022-09-18T06:24:56.944Z,21.86
2022-09-18T06:27:31.984Z,21.81
2022-09-18T06:30:07.043Z,21.74
2022-09-18T06:32:40.574Z,21.68
2022-09-18T06:35:14.274Z,21.66
2022-09-18T06:37:47.264Z,21.72
2022-09-18T06:40:32.344Z,21.83
2022-09-18T06:43:16.250Z,21.94
2022-09-18T06:45:56.104Z,22.11
2022-09-18T06:48:30.575Z,22.17
2022-09-18T06:51:05.194Z,22.17
2022-09-18T06:53:41.276Z,22.23
2022-09-18T06:56:14.636Z,22.33
2022-09-18T06:58:47.640Z,22.41
2022-09-18T07:01:23.606Z,22.47
2022-09-18T07:03:58.453Z,22.50
2022-09-18T07:06:33.154Z,22.50
2022-09-18T07:09:06.015Z,22.48
2022-09-18T07:11:55.618Z,22.49
2022-09-18T07:14:30.161Z,22.47
2022-09-18T07:17:04.896Z,22.45
2022-09-18T07:19:38.756Z,22.40
2022-09-18T07:22:12.255Z,22.38
2022-09-18T07:24:46.713Z,22.37
2022-09-18T07:27:19.685Z,22.39
2022-09-18T07:29:54.199Z,22.47
2022-09-18T07:32:27.979Z,22.57
2022-09-18T07:35:01.763Z,22.69
2022-09-18T07:37:37.000Z,22.83
2022-09-18T07:40:12.965Z,22.96
2022-09-18T07:43:04.485Z,23.09
2022-09-18T07:45:40.085Z,23.22
2022-09-18T07:48:14.122Z,23.32
2022-09-18T07:50:48.932Z,23.41
2022-09-18T07:53:21.905Z,23.54
2022-09-18T07:55:57.667Z,23.60
2022-09-18T07:58:30.612Z,23.65
2022-09-18T08:01:06.618Z,23.65
2022-09-18T08:03:41.883Z,23.66
2022-09-18T08:06:17.964Z,23.67
2022-09-18T08:09:01.829Z,23.70
2022-09-18T08:11:55.539Z,23.79
2022-09-18T08:14:30.382Z,23.91
2022-09-18T08:17:21.530Z,24.02
2022-09-18T08:20:10.691Z,24.07
2022-09-18T08:22:51.349Z,24.05
2022-09-18T08:25:27.999Z,23.97
2022-09-18T08:28:03.671Z,23.90
2022-09-18T08:30:43.492Z,23.86
2022-09-18T08:33:18.454Z,23.88
2022-09-18T08:35:52.767Z,23.94
2022-09-18T08:38:37.841Z,24.00
2022-09-18T08:42:03.878Z,24.06
2022-09-18T08:44:46.887Z,24.11
2022-09-18T08:47:33.117Z,24.12
2022-09-18T08:50:32.878Z,24.17
2022-09-18T08:53:09.381Z,24.26
2022-09-18T08:55:59.371Z,24.37
2022-09-18T08:59:02.987Z,24.48
2022-09-18T09:01:53.880Z,24.51
2022-09-18T09:04:29.946Z,24.62
2022-09-18T09:07:26.196Z,24.75
2022-09-18T09:10:08.152Z,24.85
2022-09-18T09:13:37.564Z,24.98
2022-09-18T09:16:39.060Z,25.06
2022-09-18T09:19:32.788Z,25.15
2022-09-18T09:22:24.327Z,25.23
2022-09-18T09:25:35.999Z,25.31
2022-09-18T09:28:24.232Z,25.36
2022-09-18T09:31:08.413Z,25.42
2022-09-18T09:34:06.979Z,25.49
2022-09-18T09:36:53.491Z,25.52
2022-09-18T09:39:40.025Z,25.55
2022-09-18T09:42:38.883Z,25.60
2022-09-18T09:45:31.531Z,25.61
2022-09-18T09:48:29.075Z,25.66
2022-09-18T09:51:24.805Z,25.69
2022-09-18T09:54:00.315Z,25.71
2022-09-18T09:57:01.613Z,25.75
2022-09-18T10:00:01.834Z,25.77
2022-09-18T10:03:18.384Z,25.82
2022-09-18T10:06:00.027Z,25.90
2022-09-18T10:08:47.109Z,25.93
2022-09-18T10:11:20.599Z,25.97
2022-09-18T10:14:05.715Z,26.00
2022-09-18T10:16:46.452Z,26.04
2022-09-18T10:19:22.351Z,26.08
2022-09-18T10:21:56.392Z,26.12
2022-09-18T10:24:42.678Z,26.15
2022-09-18T10:27:17.524Z,26.22
2022-09-18T10:29:50.506Z,26.28
2022-09-18T10:32:37.974Z,26.31
2022-09-18T10:35:42.770Z,26.36
2022-09-18T10:38:34.463Z,26.44
2022-09-18T10:41:28.619Z,26.48
2022-09-18T10:44:23.455Z,26.50
2022-09-18T10:47:02.815Z,26.57
2022-09-18T10:49:51.258Z,26.63
2022-09-18T10:52:45.015Z,26.67
2022-09-18T10:55:28.684Z,26.68
2022-09-18T10:58:16.122Z,26.74
2022-09-18T11:01:08.532Z,26.76
2022-09-18T11:04:03.993Z,26.81
2022-09-18T11:06:39.948Z,26.85
2022-09-18T11:09:41.206Z,26.86
2022-09-18T11:12:24.293Z,26.86
2022-09-18T11:15:11.850Z,26.88
2022-09-18T11:17:52.803Z,26.93
2022-09-18T11:20:34.699Z,26.96
2022-09-18T11:23:35.799Z,27.00
2022-09-18T11:26:31.588Z,27.03
2022-09-18T11:29:27.834Z,27.07
2022-09-18T11:32:17.964Z,27.14
2022-09-18T11:35:01.574Z,27.19
2022-09-18T11:37:38.324Z,27.23
2022-09-18T11:40:29.194Z,27.27
2022-09-18T11:43:05.281Z,27.30
2022-09-18T11:45:49.370Z,27.32
2022-09-18T11:48:42.263Z,27.35
2022-09-18T11:51:24.582Z,27.39
2022-09-18T11:54:07.359Z,27.44
2022-09-18T11:56:52.596Z,27.43
2022-09-18T11:59:38.481Z,27.51
2022-09-18T12:02:39.804Z,27.57
2022-09-18T12:05:23.736Z,27.61
2022-09-18T12:08:00.261Z,27.65
2022-09-18T12:11:05.080Z,27.67
2022-09-18T12:13:45.944Z,27.68
2022-09-18T12:16:30.029Z,27.68
2022-09-18T12:19:10.940Z,27.70
2022-09-18T12:22:15.109Z,27.74
2022-09-18T12:24:48.502Z,27.80
2022-09-18T12:27:55.921Z,27.82
2022-09-18T12:30:39.991Z,27.83
2022-09-18T12:33:30.140Z,27.86
2022-09-18T12:36:06.677Z,27.91
2022-09-18T12:39:13.667Z,27.93
2022-09-18T12:42:00.562Z,27.91
2022-09-18T12:44:45.057Z,27.88
2022-09-18T12:47:56.186Z,27.91
2022-09-18T12:51:05.609Z,27.91
2022-09-18T12:54:06.160Z,27.88
2022-09-18T12:56:51.504Z,27.82
2022-09-18T12:59:53.185Z,27.80
2022-09-18T13:02:51.330Z,27.83
2022-09-18T13:05:45.870Z,27.87
2022-09-18T13:08:50.025Z,27.85
2022-09-18T13:11:44.340Z,27.82
2022-09-18T13:14:36.767Z,27.82
2022-09-18T13:17:18.321Z,27.82
2022-09-18T13:20:06.151Z,27.78
2022-09-18T13:22:39.785Z,27.76
2022-09-18T13:25:34.360Z,27.75
2022-09-18T13:28:13.771Z,27.73
2022-09-18T13:30:46.840Z,27.72
2022-09-18T13:33:27.772Z,27.70
2022-09-18T13:36:01.333Z,27.70
2022-09-18T13:38:35.855Z,27.66
2022-09-18T13:41:12.616Z,27.63
2022-09-18T13:43:57.350Z,27.61
2022-09-18T13:46:40.069Z,27.61
2022-09-18T13:49:32.205Z,27.59
2022-09-18T13:52:38.294Z,27.55
2022-09-18T13:55:18.469Z,27.53
2022-09-18T13:57:52.663Z,27.52
2022-09-18T14:00:28.328Z,27.53
2022-09-18T14:03:17.471Z,27.53
2022-09-18T14:05:50.774Z,27.50
2022-09-18T14:08:28.829Z,27.47
2022-09-18T14:11:15.509Z,27.48
2022-09-18T14:13:54.620Z,27.46
2022-09-18T14:16:36.120Z,27.41
2022-09-18T14:19:33.774Z,27.36
2022-09-18T14:22:26.628Z,27.32
2022-09-18T14:25:03.708Z,27.25
2022-09-18T14:27:52.290Z,27.18
2022-09-18T14:30:30.887Z,27.13
2022-09-18T14:33:19.781Z,27.08
2022-09-18T14:36:05.015Z,27.03
2022-09-18T14:38:41.168Z,26.94
2022-09-18T14:41:26.230Z,26.83
2022-09-18T14:44:04.435Z,26.73
2022-09-18T14:46:37.697Z,26.61
2022-09-18T14:49:15.271Z,26.53
2022-09-18T14:52:03.135Z,26.47
2022-09-18T14:54:26.280Z,26.41
2022-09-18T14:57:02.422Z,26.33
2022-09-18T14:59:35.565Z,26.25
2022-09-18T15:02:33.427Z,26.17
2022-09-18T15:05:13.624Z,26.12
2022-09-18T15:07:53.125Z,26.05
2022-09-18T15:10:28.518Z,25.99
2022-09-18T15:13:04.570Z,25.93
2022-09-18T15:15:40.354Z,25.88
2022-09-18T15:18:24.767Z,25.82
2022-09-18T15:21:02.356Z,25.77
2022-09-18T15:23:39.660Z,25.70
2022-09-18T15:26:15.884Z,25.63
2022-09-18T15:28:51.814Z,25.55
2022-09-18T15:31:32.843Z,25.45
2022-09-18T15:34:22.068Z,25.37
2022-09-18T15:37:04.203Z,25.28
2022-09-18T15:39:41.576Z,25.19
2022-09-18T15:42:21.446Z,25.10
2022-09-18T15:45:04.446Z,25.02
2022-09-18T15:47:41.469Z,24.95
2022-09-18T15:50:21.811Z,24.87
2022-09-18T15:53:01.700Z,24.79
2022-09-18T15:55:57.276Z,24.72
2022-09-18T15:58:37.664Z,24.65
2022-09-18T16:01:22.704Z,24.58
2022-09-18T16:04:18.317Z,24.51
2022-09-18T16:07:00.560Z,24.46
2022-09-18T16:09:46.823Z,24.41
2022-09-18T16:12:36.010Z,24.35
2022-09-18T16:15:22.261Z,24.31
2022-09-18T16:18:04.489Z,24.28
2022-09-18T16:20:42.772Z,24.25
2022-09-18T16:23:38.550Z,24.23
2022-09-18T16:26:37.851Z,24.19
2022-09-18T16:29:24.126Z,24.18
2022-09-18T16:31:57.850Z,24.15
2022-09-18T16:34:31.437Z,24.12
2022-09-18T16:37:05.971Z,24.12
2022-09-18T16:39:39.800Z,24.10
2022-09-18T16:42:20.085Z,24.07
2022-09-18T16:44:57.238Z,24.05
2022-09-18T16:47:30.198Z,24.03
2022-09-18T16:50:03.887Z,23.99
2022-09-18T16:52:36.281Z,23.98
2022-09-18T16:55:09.745Z,23.93
2022-09-18T16:57:42.459Z,23.90
2022-09-18T17:00:15.759Z,23.86
2022-09-18T17:02:49.459Z,23.84
2022-09-18T17:05:22.377Z,23.80
2022-09-18T17:07:55.756Z,23.75
2022-09-18T17:10:30.745Z,23.71
2022-09-18T17:13:04.291Z,23.66
2022-09-18T17:15:37.572Z,23.65
2022-09-18T17:18:10.633Z,23.61
2022-09-18T17:20:43.564Z,23.60
2022-09-18T17:23:16.410Z,23.56
2022-09-18T17:25:49.424Z,23.53
2022-09-18T17:28:22.389Z,23.48
2022-09-18T17:30:56.060Z,23.44
2022-09-18T17:33:29.012Z,23.41
2022-09-18T17:36:10.892Z,23.39
2022-09-18T17:38:44.766Z,23.37
2022-09-18T17:41:19.908Z,23.36
2022-09-18T17:43:53.958Z,23.33
2022-09-18T17:46:26.969Z,23.30
2022-09-18T17:49:01.343Z,23.28
2022-09-18T17:51:33.469Z,23.24
2022-09-18T17:54:07.369Z,23.21
2022-09-18T17:56:41.151Z,23.18
2022-09-18T17:59:14.453Z,23.14
2022-09-18T18:01:50.065Z,23.10
2022-09-18T18:04:22.971Z,23.08
2022-09-18T18:06:55.985Z,23.06
2022-09-18T18:09:30.588Z,23.04
2022-09-18T18:12:05.457Z,23.01
2022-09-18T18:14:37.453Z,22.99
2022-09-18T18:17:10.831Z,22.96
2022-09-18T18:19:44.233Z,22.92
2022-09-18T18:22:17.461Z,22.89
2022-09-18T18:24:51.266Z,22.85
2022-09-18T18:27:24.602Z,22.81
2022-09-18T18:29:57.859Z,22.79
2022-09-18T18:32:32.969Z,22.79
2022-09-18T18:35:06.979Z,22.77
2022-09-18T18:37:40.466Z,22.75
2022-09-18T18:40:14.698Z,22.75
2022-09-18T18:42:47.929Z,22.73
2022-09-18T18:45:22.687Z,22.72
2022-09-18T18:47:58.799Z,22.68
2022-09-18T18:50:33.636Z,22.59
2022-09-18T18:53:08.001Z,22.58
2022-09-18T18:55:43.167Z,22.52
2022-09-18T18:58:17.767Z,22.46
2022-09-18T19:00:50.859Z,22.39
2022-09-18T19:03:24.042Z,22.36
2022-09-18T19:05:57.827Z,22.31
2022-09-18T19:08:31.653Z,22.27
2022-09-18T19:11:05.512Z,22.22
2022-09-18T19:13:45.144Z,22.16
2022-09-18T19:16:19.802Z,22.09
2022-09-18T19:18:59.393Z,22.02
2022-09-18T19:21:32.330Z,21.96
2022-09-18T19:24:05.906Z,21.90
2022-09-18T19:26:41.176Z,21.84
2022-09-18T19:29:16.980Z,21.78
2022-09-18T19:31:51.147Z,21.71
2022-09-18T19:34:24.231Z,21.65
2022-09-18T19:36:58.189Z,21.59
2022-09-18T19:39:30.961Z,21.50
2022-09-18T19:42:14.991Z,21.43
2022-09-18T19:44:56.380Z,21.39
2022-09-18T19:47:33.100Z,21.32
2022-09-18T19:50:07.720Z,21.26
2022-09-18T19:52:43.903Z,21.21
2022-09-18T19:55:21.006Z,21.15
2022-09-18T19:57:59.593Z,21.11
2022-09-18T20:00:32.567Z,21.07
2022-09-18T20:03:05.384Z,21.03
2022-09-18T20:05:43.377Z,20.98
2022-09-18T20:08:17.357Z,20.93
2022-09-18T20:10:50.548Z,20.88
2022-09-18T20:13:23.972Z,20.83
2022-09-18T20:16:06.444Z,20.77
2022-09-18T20:18:40.732Z,20.73
2022-09-18T20:21:16.762Z,20.69
2022-09-18T20:23:49.918Z,20.65
2022-09-18T20:26:22.606Z,20.59
2022-09-18T20:28:55.540Z,20.56
2022-09-18T20:31:28.252Z,20.53
2022-09-18T20:34:02.717Z,20.50
2022-09-18T20:36:35.984Z,20.48
2022-09-18T20:39:08.921Z,20.47
2022-09-18T20:41:42.238Z,20.42
2022-09-18T20:44:15.671Z,20.39
2022-09-18T20:46:50.121Z,20.32
2022-09-18T20:49:25.095Z,20.25
2022-09-18T20:51:58.525Z,20.17
2022-09-18T20:54:31.756Z,20.12
2022-09-18T20:57:04.595Z,20.06
2022-09-18T20:59:39.494Z,20.00
2022-09-18T21:02:14.132Z,19.95
2022-09-18T21:04:50.142Z,19.89
2022-09-18T21:07:24.690Z,19.83
2022-09-18T21:09:58.891Z,19.77
2022-09-18T21:12:33.449Z,19.73
2022-09-18T21:15:14.083Z,19.69
2022-09-18T21:17:48.449Z,19.64
2022-09-18T21:20:21.806Z,19.58
2022-09-18T21:23:12.097Z,19.52
2022-09-18T21:25:44.958Z,19.47
2022-09-18T21:28:17.746Z,19.38
2022-09-18T21:30:50.580Z,19.31
2022-09-18T21:33:24.716Z,19.22
2022-09-18T21:35:57.451Z,19.09
2022-09-18T21:38:31.132Z,18.94
2022-09-18T21:41:10.234Z,18.79
2022-09-18T21:43:44.909Z,18.68
2022-09-18T21:46:20.601Z,18.54
2022-09-18T21:48:54.602Z,18.42
2022-09-18T21:51:27.232Z,18.31
2022-09-18T21:54:00.254Z,18.22
2022-09-18T21:56:34.054Z,18.14
2022-09-18T21:59:08.440Z,18.07
2022-09-18T22:01:43.056Z,17.99
2022-09-18T22:04:15.820Z,17.93
2022-09-18T22:06:50.817Z,17.85
2022-09-18T22:09:37.824Z,17.75
2022-09-18T22:12:13.105Z,17.62
2022-09-18T22:14:46.151Z,17.48
2022-09-18T22:17:19.170Z,17.38
2022-09-18T22:19:53.046Z,17.28
2022-09-18T22:22:27.154Z,17.20
2022-09-18T22:24:59.979Z,17.08
2022-09-18T22:27:32.827Z,16.97
2022-09-18T22:30:06.395Z,16.86
2022-09-18T22:32:39.232Z,16.68
2022-09-18T22:35:12.461Z,16.53
2022-09-18T22:37:45.052Z,16.38
2022-09-18T22:40:18.017Z,16.30
2022-09-18T22:42:50.960Z,16.19
2022-09-18T22:45:23.742Z,16.05
2022-09-18T22:47:56.627Z,15.95
2022-09-18T22:50:29.311Z,15.85
2022-09-18T22:53:02.283Z,15.75
2022-09-18T22:55:35.811Z,15.62
2022-09-18T22:58:08.534Z,15.53
2022-09-18T23:00:41.210Z,15.41
2022-09-18T23:03:13.868Z,15.28
2022-09-18T23:05:47.336Z,15.23
2022-09-18T23:08:20.536Z,15.17
2022-09-18T23:10:54.977Z,15.12
2022-09-18T23:13:27.484Z,15.03
2022-09-18T23:16:06.327Z,14.88
2022-09-18T23:18:40.355Z,14.71
2022-09-18T23:21:14.723Z,14.52
2022-09-18T23:23:48.527Z,14.38
2022-09-18T23:26:25.963Z,14.23
2022-09-18T23:29:00.355Z,14.15
2022-09-18T23:31:36.818Z,14.15
2022-09-18T23:34:14.124Z,14.12
2022-09-18T23:36:50.196Z,14.07
2022-09-18T23:39:28.841Z,13.98
2022-09-18T23:42:03.018Z,13.85
2022-09-18T23:44:35.985Z,13.74
2022-09-18T23:47:08.891Z,13.70
2022-09-18T23:49:41.596Z,13.65
2022-09-18T23:52:14.288Z,13.60
2022-09-18T23:54:47.156Z,13.55
2022-09-18T23:57:19.821Z,13.54
2022-09-18T23:59:53.427Z,13.47
